Deport, Texas
Current Conditions -  °F | °C
As of 4:15 AM on Thursday 29 Jan 2015 (Local Time) from KPRX Reporting Station
Clear Clear  
Wind Chill: 54°   Ceiling: Unl
Heat Index: 54°   Visibility: 10mi
Dew Point: 41°   Wind: 8mph
Humidity: 62%   Direction: 230°SW
Pressure: 30.06"   Gusts: NA
Location:  33.53°N, 95.32°W
Report Text: KPRX 291015Z 23007KT 10SM CLR 12/05 A3006 RMK AO1
Loading
Personal Weather Stations






























Interactive Weather Map New forecast layout! Learn more

10-Day Weather Forecast

Advertisements
Track Severe Weather on mobile